createdAt,value
2017-05-11T00:00:22.776Z,6.77
2017-05-11T00:01:24.051Z,6.61
2017-05-11T00:02:25.358Z,6.65
2017-05-11T00:03:26.624Z,6.66
2017-05-11T00:04:27.869Z,6.59
2017-05-11T00:05:29.134Z,6.61
2017-05-11T00:06:30.407Z,6.56
2017-05-11T00:07:31.680Z,6.56
2017-05-11T00:08:32.960Z,6.61
2017-05-11T00:09:34.215Z,6.58
2017-05-11T00:10:35.548Z,6.61
2017-05-11T00:11:36.786Z,6.58
2017-05-11T00:12:38.026Z,6.5
2017-05-11T00:13:39.269Z,6.53
2017-05-11T00:14:40.511Z,6.5
2017-05-11T00:15:41.747Z,6.58
2017-05-11T00:16:43.013Z,6.54
2017-05-11T00:17:44.256Z,6.56
2017-05-11T00:18:45.517Z,6.56
2017-05-11T00:19:46.781Z,6.51
2017-05-11T00:20:48.021Z,6.44
2017-05-11T00:21:49.378Z,6.48
2017-05-11T00:22:50.623Z,6.4
2017-05-11T00:23:51.868Z,6.4
2017-05-11T00:24:53.109Z,6.44
2017-05-11T00:25:54.484Z,6.36
2017-05-11T00:26:55.727Z,6.35
2017-05-11T00:27:57.008Z,6.43
2017-05-11T00:28:58.237Z,6.36
2017-05-11T00:29:59.694Z,6.28
2017-05-11T00:31:00.880Z,6.32
2017-05-11T00:32:02.128Z,6.29
2017-05-11T00:33:03.547Z,6.28
2017-05-11T00:34:04.783Z,6.33
2017-05-11T00:35:06.109Z,6.28
2017-05-11T00:36:07.383Z,6.28
2017-05-11T00:37:08.681Z,6.29
2017-05-11T00:38:09.924Z,6.3
2017-05-11T00:39:11.177Z,6.26
2017-05-11T00:40:12.416Z,6.19
2017-05-11T00:41:13.770Z,6.22
2017-05-11T00:42:15.000Z,6.26
2017-05-11T00:43:16.227Z,6.21
2017-05-11T00:44:17.502Z,6.13
2017-05-11T00:45:18.755Z,6.11
2017-05-11T00:46:19.986Z,6.03
2017-05-11T00:47:21.270Z,6.1
2017-05-11T00:48:22.520Z,6.09
2017-05-11T00:49:23.757Z,6.07
2017-05-11T00:50:24.986Z,6
2017-05-11T00:51:26.223Z,6.03
2017-05-11T00:52:27.481Z,5.92
2017-05-11T00:53:28.743Z,6.01
2017-05-11T00:54:29.979Z,5.88
2017-05-11T00:55:31.222Z,5.96
2017-05-11T00:56:32.634Z,5.95
2017-05-11T00:57:33.884Z,5.88
2017-05-11T00:58:35.194Z,5.86
2017-05-11T00:59:36.407Z,5.83
2017-05-11T01:00:37.671Z,5.85
2017-05-11T01:01:38.893Z,5.89
2017-05-11T01:02:40.177Z,5.81
2017-05-11T01:03:41.403Z,5.75
2017-05-11T01:04:42.667Z,5.83
2017-05-11T01:05:43.930Z,5.75
2017-05-11T01:06:45.261Z,5.78
2017-05-11T01:07:46.705Z,5.77
2017-05-11T01:08:47.887Z,5.83
2017-05-11T01:09:49.126Z,5.81
2017-05-11T01:10:50.362Z,5.81
2017-05-11T01:11:51.635Z,5.78
2017-05-11T01:12:53.041Z,5.77
2017-05-11T01:13:54.276Z,5.82
2017-05-11T01:14:55.479Z,5.74
2017-05-11T01:15:56.754Z,5.74
2017-05-11T01:16:58.006Z,5.74
2017-05-11T01:17:59.264Z,5.81
2017-05-11T01:19:00.511Z,5.77
2017-05-11T01:20:01.872Z,5.75
2017-05-11T01:21:03.099Z,5.67
2017-05-11T01:22:04.360Z,5.71
2017-05-11T01:23:05.606Z,5.75
2017-05-11T01:24:06.869Z,5.74
2017-05-11T01:25:08.218Z,5.82
2017-05-11T01:26:09.469Z,5.82
2017-05-11T01:27:10.757Z,5.75
2017-05-11T01:28:12.059Z,5.7
2017-05-11T01:29:13.292Z,5.68
2017-05-11T01:30:14.551Z,5.67
2017-05-11T01:31:15.801Z,5.74
2017-05-11T01:32:17.106Z,5.71
2017-05-11T01:33:18.372Z,5.71
2017-05-11T01:34:19.697Z,5.73
2017-05-11T01:35:20.972Z,5.67
2017-05-11T01:36:22.294Z,5.7
2017-05-11T01:37:23.571Z,5.63
2017-05-11T01:38:24.861Z,5.67
2017-05-11T01:39:26.071Z,5.63
2017-05-11T01:40:27.345Z,5.59
2017-05-11T01:41:28.612Z,5.56
2017-05-11T01:42:29.893Z,5.59
2017-05-11T01:43:31.204Z,5.6
2017-05-11T01:44:32.435Z,5.6
2017-05-11T01:45:33.690Z,5.66
2017-05-11T01:46:34.931Z,5.59
2017-05-11T01:47:36.193Z,5.67
2017-05-11T01:48:37.437Z,5.63
2017-05-11T01:49:38.824Z,5.64
2017-05-11T01:50:40.069Z,5.6
2017-05-11T01:51:41.379Z,5.55
2017-05-11T01:52:42.649Z,5.6
2017-05-11T01:53:43.983Z,5.57
2017-05-11T01:54:45.412Z,5.55
2017-05-11T01:55:46.694Z,5.5
2017-05-11T01:56:47.962Z,5.45
2017-05-11T01:57:49.192Z,5.43
2017-05-11T01:58:50.469Z,5.34
2017-05-11T01:59:51.756Z,5.45
2017-05-11T02:00:53.153Z,5.46
2017-05-11T02:01:54.400Z,5.43
2017-05-11T02:02:55.653Z,5.45
2017-05-11T02:03:56.916Z,5.37
2017-05-11T02:04:58.230Z,5.52
2017-05-11T02:05:59.423Z,5.48
2017-05-11T02:07:00.697Z,5.46
2017-05-11T02:08:01.986Z,5.38
2017-05-11T02:09:03.208Z,5.41
2017-05-11T02:10:04.464Z,5.38
2017-05-11T02:11:05.710Z,5.41
2017-05-11T02:12:07.485Z,5.49
2017-05-11T02:13:08.760Z,5.43
2017-05-11T02:14:10.019Z,5.43
2017-05-11T02:15:11.358Z,5.52
2017-05-11T02:16:12.608Z,5.52
2017-05-11T02:17:13.846Z,5.43
2017-05-11T02:18:15.097Z,5.43
2017-05-11T02:19:16.367Z,5.49
2017-05-11T02:20:17.657Z,5.53
2017-05-11T02:21:18.925Z,5.4
2017-05-11T02:22:20.206Z,5.49
2017-05-11T02:23:21.448Z,5.5
2017-05-11T02:24:22.740Z,5.41
2017-05-11T02:25:24.036Z,5.43
2017-05-11T02:26:25.295Z,5.37
2017-05-11T02:27:26.580Z,5.48
2017-05-11T02:28:27.821Z,5.45
2017-05-11T02:29:29.089Z,5.43
2017-05-11T02:30:30.325Z,5.35
2017-05-11T02:31:31.601Z,5.49
2017-05-11T02:32:32.860Z,5.4
2017-05-11T02:33:34.082Z,5.41
2017-05-11T02:34:35.414Z,5.38
2017-05-11T02:35:36.661Z,5.43
2017-05-11T02:36:37.965Z,5.4
2017-05-11T02:37:39.282Z,5.46
2017-05-11T02:38:40.561Z,5.4
2017-05-11T02:39:41.806Z,5.45
2017-05-11T02:40:43.099Z,5.48
2017-05-11T02:41:44.461Z,5.32
2017-05-11T02:42:45.697Z,5.35
2017-05-11T02:43:46.992Z,5.37
2017-05-11T02:44:48.213Z,5.37
2017-05-11T02:45:49.596Z,5.32
2017-05-11T02:46:50.949Z,5.37
2017-05-11T02:47:52.202Z,5.25
2017-05-11T02:48:53.507Z,5.4
2017-05-11T02:49:54.741Z,5.35
2017-05-11T02:50:55.971Z,5.27
2017-05-11T02:51:57.236Z,5.22
2017-05-11T02:52:58.500Z,5.3
2017-05-11T02:53:59.761Z,5.22
2017-05-11T02:55:01.126Z,5.28
2017-05-11T02:56:02.389Z,5.3
2017-05-11T02:57:03.636Z,5.23
2017-05-11T02:58:04.876Z,5.31
2017-05-11T02:59:06.142Z,5.25
2017-05-11T03:00:07.494Z,5.22
2017-05-11T03:01:08.792Z,5.2
2017-05-11T03:02:10.041Z,5.14
2017-05-11T03:03:11.392Z,5.16
2017-05-11T03:04:12.667Z,5.1
2017-05-11T03:05:13.918Z,5.12
2017-05-11T03:06:15.277Z,5.12
2017-05-11T03:07:16.656Z,5.16
2017-05-11T03:08:17.830Z,5.17
2017-05-11T03:09:19.092Z,5.14
2017-05-11T03:10:20.320Z,5.16
2017-05-11T03:11:21.638Z,5.2
2017-05-11T03:12:23.009Z,5.16
2017-05-11T03:13:24.358Z,5.12
2017-05-11T03:14:25.615Z,5.17
2017-05-11T03:15:26.840Z,5.1
2017-05-11T03:16:28.206Z,5.12
2017-05-11T03:17:29.515Z,5.12
2017-05-11T03:18:30.850Z,5.12
2017-05-11T03:19:32.089Z,5.13
2017-05-11T03:20:33.369Z,5.12
2017-05-11T03:21:34.658Z,5.13
2017-05-11T03:22:35.981Z,5.13
2017-05-11T03:23:37.212Z,5.13
2017-05-11T03:24:38.498Z,5.01
2017-05-11T03:25:39.719Z,5.02
2017-05-11T03:26:40.971Z,4.95
2017-05-11T03:27:42.226Z,5.02
2017-05-11T03:28:43.504Z,4.98
2017-05-11T03:29:44.735Z,4.96
2017-05-11T03:30:45.979Z,4.95
2017-05-11T03:31:47.232Z,4.96
2017-05-11T03:32:48.489Z,4.94
2017-05-11T03:33:49.756Z,4.89
2017-05-11T03:34:51.013Z,4.89
2017-05-11T03:35:52.290Z,4.88
2017-05-11T03:36:53.535Z,4.88
2017-05-11T03:37:54.827Z,4.86
2017-05-11T03:38:56.119Z,4.84
2017-05-11T03:39:57.460Z,4.83
2017-05-11T03:40:58.796Z,4.77
2017-05-11T03:42:00.049Z,4.79
2017-05-11T03:43:01.306Z,4.86
2017-05-11T03:44:02.619Z,4.77
2017-05-11T03:45:03.897Z,4.77
2017-05-11T03:46:05.153Z,4.8
2017-05-11T03:47:06.398Z,4.79
2017-05-11T03:48:07.735Z,4.77
2017-05-11T03:49:08.954Z,4.79
2017-05-11T03:50:10.203Z,4.79
2017-05-11T03:51:11.698Z,4.86
2017-05-11T03:52:12.980Z,4.77
2017-05-11T03:53:14.355Z,4.84
2017-05-11T03:54:15.623Z,4.75
2017-05-11T03:55:16.880Z,4.76
2017-05-11T03:56:18.191Z,4.79
2017-05-11T03:57:19.468Z,4.76
2017-05-11T03:58:20.667Z,4.72
2017-05-11T03:59:21.931Z,4.76
2017-05-11T04:00:23.259Z,4.83
2017-05-11T04:01:24.609Z,4.79
2017-05-11T04:02:25.805Z,4.86
2017-05-11T04:03:27.065Z,4.84
2017-05-11T04:04:28.356Z,4.88
2017-05-11T04:05:29.664Z,4.92
2017-05-11T04:06:30.961Z,4.98
2017-05-11T04:07:32.227Z,4.96
2017-05-11T04:08:33.497Z,4.94
2017-05-11T04:09:34.771Z,4.92
2017-05-11T04:10:36.076Z,5.02
2017-05-11T04:11:37.372Z,5.01
2017-05-11T04:12:38.647Z,5.12
2017-05-11T04:13:39.950Z,5.2
2017-05-11T04:14:41.199Z,5.13
2017-05-11T04:15:42.447Z,5.16
2017-05-11T04:16:43.746Z,5.22
2017-05-11T04:17:45.107Z,5.13
2017-05-11T04:18:46.369Z,5.2
2017-05-11T04:19:47.602Z,5.28
2017-05-11T04:20:48.851Z,5.3
2017-05-11T04:21:50.221Z,5.37
2017-05-11T04:22:51.471Z,5.48
2017-05-11T04:23:52.769Z,5.41
2017-05-11T04:24:54.034Z,5.43
2017-05-11T04:25:55.265Z,5.45
2017-05-11T04:26:56.532Z,5.56
2017-05-11T04:27:57.774Z,5.6
2017-05-11T04:28:59.061Z,5.63
2017-05-11T04:30:00.400Z,5.7
2017-05-11T04:31:01.652Z,5.75
2017-05-11T04:32:02.940Z,5.71
2017-05-11T04:33:04.224Z,5.74
2017-05-11T04:34:05.484Z,5.85
2017-05-11T04:35:06.730Z,5.78
2017-05-11T04:36:07.986Z,5.82
2017-05-11T04:37:09.270Z,5.95
2017-05-11T04:38:10.521Z,5.92
2017-05-11T04:39:11.772Z,6
2017-05-11T04:40:13.088Z,6.14
2017-05-11T04:41:14.378Z,6.07
2017-05-11T04:42:15.649Z,6.19
2017-05-11T04:43:16.942Z,6.3
2017-05-11T04:44:18.191Z,6.35
2017-05-11T04:45:19.474Z,6.3
2017-05-11T04:46:20.757Z,6.36
2017-05-11T04:47:22.085Z,6.43
2017-05-11T04:48:23.449Z,6.46
2017-05-11T04:49:24.690Z,6.53
2017-05-11T04:50:25.973Z,6.51
2017-05-11T04:51:27.278Z,6.58
2017-05-11T04:52:28.554Z,6.65
2017-05-11T04:53:29.834Z,6.71
2017-05-11T04:54:31.070Z,6.72
2017-05-11T04:55:32.327Z,6.81
2017-05-11T04:56:33.650Z,6.87
2017-05-11T04:57:34.867Z,6.9
2017-05-11T04:58:36.140Z,7.07
2017-05-11T04:59:37.381Z,7.05
2017-05-11T05:00:38.682Z,7.24
2017-05-11T05:01:39.941Z,7.17
2017-05-11T05:02:41.229Z,7.22
2017-05-11T05:03:42.445Z,7.37
2017-05-11T05:04:43.715Z,7.42
2017-05-11T05:05:44.985Z,7.62
2017-05-11T05:06:46.287Z,7.79
2017-05-11T05:07:47.678Z,8.07
2017-05-11T05:08:48.954Z,8.5
2017-05-11T05:09:50.197Z,8.99
2017-05-11T05:10:51.530Z,9.56
2017-05-11T05:11:52.790Z,10.09
2017-05-11T05:12:54.040Z,10.6
2017-05-11T05:13:55.296Z,11.06
2017-05-11T05:14:56.550Z,11.54
2017-05-11T05:15:57.963Z,11.89
2017-05-11T05:16:59.338Z,12.37
2017-05-11T05:18:00.603Z,12.66
2017-05-11T05:19:01.838Z,12.74
2017-05-11T05:20:03.109Z,12.66
2017-05-11T05:21:04.359Z,12.67
2017-05-11T05:22:05.641Z,12.7
2017-05-11T05:23:07.033Z,12.67
2017-05-11T05:24:08.295Z,12.88
2017-05-11T05:25:09.556Z,13.03
2017-05-11T05:26:10.832Z,13.21
2017-05-11T05:27:12.090Z,13.51
2017-05-11T05:28:13.374Z,13.96
2017-05-11T05:29:14.641Z,14.28
2017-05-11T05:30:15.920Z,14.65
2017-05-11T05:31:17.228Z,14.9
2017-05-11T05:32:18.470Z,15.2
2017-05-11T05:33:19.755Z,15.74
2017-05-11T05:34:21.051Z,16.23
2017-05-11T05:35:22.337Z,16.53
2017-05-11T05:36:23.595Z,16.86
2017-05-11T05:37:24.852Z,16.98
2017-05-11T05:38:26.111Z,16.9
2017-05-11T05:39:27.353Z,16.86
2017-05-11T05:40:28.604Z,17.04
2017-05-11T05:41:29.943Z,17.23
2017-05-11T05:42:31.284Z,17.64
2017-05-11T05:43:32.596Z,17.97
2017-05-11T05:44:33.856Z,18.24
2017-05-11T05:45:35.122Z,18.52
2017-05-11T05:46:36.464Z,18.86
2017-05-11T05:47:37.733Z,18.87
2017-05-11T05:48:39.000Z,18.62
2017-05-11T05:49:40.272Z,18.97
2017-05-11T05:50:41.544Z,19.4
2017-05-11T05:51:42.807Z,19.51
2017-05-11T05:52:44.059Z,19.33
2017-05-11T05:53:45.331Z,19.13
2017-05-11T05:54:46.686Z,19.11
2017-05-11T05:55:47.950Z,19.38
2017-05-11T05:56:49.270Z,19.32
2017-05-11T05:57:50.587Z,19.58
2017-05-11T05:58:51.855Z,19.84
2017-05-11T05:59:53.106Z,19.75
2017-05-11T06:00:54.380Z,19.63
2017-05-11T06:01:55.676Z,19.78
2017-05-11T06:02:56.898Z,20.15
2017-05-11T06:03:58.261Z,20.61
2017-05-11T06:04:59.555Z,20.93
2017-05-11T06:06:00.809Z,21.14
2017-05-11T06:07:02.060Z,21.72
2017-05-11T06:08:03.315Z,22.23
2017-05-11T06:09:04.604Z,22.71
2017-05-11T06:10:06.003Z,23.02
2017-05-11T06:11:07.260Z,23.35
2017-05-11T06:12:08.540Z,23.39
2017-05-11T06:13:09.814Z,23.61
2017-05-11T06:14:11.096Z,23.95
2017-05-11T06:15:12.362Z,24.22
2017-05-11T06:16:13.680Z,24.44
2017-05-11T06:17:14.937Z,24.82
2017-05-11T06:18:16.208Z,24.87
2017-05-11T06:19:17.516Z,24.41
2017-05-11T06:20:18.743Z,24.56
2017-05-11T06:21:20.043Z,24.92
2017-05-11T06:22:21.475Z,24.92
2017-05-11T06:23:22.820Z,24.91
2017-05-11T06:24:23.999Z,25.37
2017-05-11T06:25:25.247Z,25.32
2017-05-11T06:26:26.519Z,25.3
2017-05-11T06:27:27.828Z,24.94
2017-05-11T06:28:29.171Z,25.19
2017-05-11T06:29:30.394Z,24.87
2017-05-11T06:30:31.659Z,24.42
2017-05-11T06:31:32.932Z,24.07
2017-05-11T06:32:34.195Z,23.97
2017-05-11T06:33:35.487Z,23.87
2017-05-11T06:34:36.770Z,23.68
2017-05-11T06:35:38.014Z,24.04
2017-05-11T06:36:39.289Z,24.75
2017-05-11T06:37:40.523Z,25.5
2017-05-11T06:38:41.794Z,26.11
2017-05-11T06:39:43.071Z,26.64
2017-05-11T06:40:44.334Z,26.83
2017-05-11T06:41:45.639Z,27.17
2017-05-11T06:42:46.889Z,27.76
2017-05-11T06:43:48.147Z,27.71
2017-05-11T06:44:49.485Z,27.8
2017-05-11T06:45:50.802Z,27.57
2017-05-11T06:46:52.095Z,27.61
2017-05-11T06:47:53.390Z,27.16
2017-05-11T06:48:54.650Z,27.36
2017-05-11T06:49:56.003Z,27.51
2017-05-11T06:50:57.305Z,27.57
2017-05-11T06:51:58.611Z,27.69
2017-05-11T06:53:00.046Z,27.21
2017-05-11T06:54:01.309Z,27.51
2017-05-11T06:55:02.569Z,27.59
2017-05-11T06:56:03.850Z,27.84
2017-05-11T06:57:05.108Z,27.98
2017-05-11T06:58:06.372Z,28.17
2017-05-11T06:59:07.638Z,28.17
2017-05-11T07:00:08.914Z,28.11
2017-05-11T07:01:10.181Z,28.21
2017-05-11T07:02:11.430Z,28.28
2017-05-11T07:03:12.702Z,28.22
2017-05-11T07:04:14.005Z,28.17
2017-05-11T07:05:15.292Z,28.19
2017-05-11T07:06:16.566Z,28.03
2017-05-11T07:07:17.917Z,28.03
2017-05-11T07:08:19.252Z,28.35
2017-05-11T07:09:20.523Z,28.54
2017-05-11T07:10:21.868Z,28.54
2017-05-11T07:11:23.158Z,28.72
2017-05-11T07:12:24.425Z,28.77
2017-05-11T07:13:25.721Z,28.69
2017-05-11T07:14:27.066Z,29.06
2017-05-11T07:15:28.328Z,29.23
2017-05-11T07:16:29.614Z,29.22
2017-05-11T07:17:30.929Z,29.28
2017-05-11T07:18:32.218Z,29.26
2017-05-11T07:19:33.475Z,29.03
2017-05-11T07:20:34.741Z,29.07
2017-05-11T07:21:36.047Z,29.22
2017-05-11T07:22:37.352Z,29.41
2017-05-11T07:23:38.648Z,29.59
2017-05-11T07:24:40.011Z,29.63
2017-05-11T07:25:41.313Z,29.78
2017-05-11T07:26:42.593Z,30
2017-05-11T07:27:43.910Z,30.14
2017-05-11T07:28:45.210Z,30.34
2017-05-11T07:29:46.485Z,30.31
2017-05-11T07:30:47.864Z,30.05
2017-05-11T07:31:49.121Z,29.55
2017-05-11T07:32:50.393Z,29.45
2017-05-11T07:33:51.687Z,29.9
2017-05-11T07:34:52.950Z,30.15
2017-05-11T07:35:54.239Z,30.54
2017-05-11T07:36:55.616Z,30.91
2017-05-11T07:37:56.893Z,31.24
2017-05-11T07:38:58.152Z,31.7
2017-05-11T07:39:59.452Z,31.42
2017-05-11T07:41:00.704Z,31.7
2017-05-11T07:42:02.027Z,31.99
2017-05-11T07:43:03.310Z,31.88
2017-05-11T07:44:04.645Z,31.11
2017-05-11T07:45:05.923Z,30.72
2017-05-11T07:46:07.197Z,30.18
2017-05-11T07:47:08.516Z,29.57
2017-05-11T07:48:09.783Z,29.23
2017-05-11T07:49:11.097Z,29.07
2017-05-11T07:50:12.403Z,28.66
2017-05-11T07:51:13.681Z,28.54
2017-05-11T07:52:14.937Z,28.32
2017-05-11T07:53:16.215Z,28.54
2017-05-11T07:54:17.662Z,28.65
2017-05-11T07:55:18.929Z,29.07
2017-05-11T07:56:20.237Z,29.31
2017-05-11T07:57:21.487Z,29.55
2017-05-11T07:58:22.736Z,29.55
2017-05-11T07:59:24.065Z,29.89
2017-05-11T08:00:25.432Z,29.87
2017-05-11T08:01:26.680Z,30.21
2017-05-11T08:02:27.934Z,30.91
2017-05-11T08:03:29.198Z,31.62
2017-05-11T08:04:30.460Z,31.84
2017-05-11T08:05:31.851Z,32.17
2017-05-11T08:06:33.119Z,32.54
2017-05-11T08:07:34.388Z,32.74
2017-05-11T08:08:35.712Z,32.84
2017-05-11T08:09:36.986Z,32.64
2017-05-11T08:10:38.253Z,32.47
2017-05-11T08:11:39.588Z,32.55
2017-05-11T08:12:40.900Z,32.54
2017-05-11T08:13:42.202Z,32.81
2017-05-11T08:14:43.540Z,32.98
2017-05-11T08:15:44.804Z,32.81
2017-05-11T08:16:46.041Z,32.05
2017-05-11T08:17:47.379Z,32.29
2017-05-11T08:18:48.663Z,32.48
2017-05-11T08:19:49.941Z,32.8
2017-05-11T08:20:51.210Z,32.74
2017-05-11T08:21:52.490Z,33.03
2017-05-11T08:22:53.730Z,33.3
2017-05-11T08:23:55.030Z,33.82
2017-05-11T08:24:56.294Z,34.31
2017-05-11T08:25:57.569Z,34.99
2017-05-11T08:26:58.857Z,35.13
2017-05-11T08:28:00.157Z,34.91
2017-05-11T08:29:01.482Z,34.44
2017-05-11T08:30:02.797Z,34.44
2017-05-11T08:31:04.074Z,33.86
2017-05-11T08:32:05.329Z,33.83
2017-05-11T08:33:06.607Z,33.95
2017-05-11T08:34:07.883Z,34.42
2017-05-11T08:35:09.168Z,34.79
2017-05-11T08:36:10.423Z,34.94
2017-05-11T08:37:11.746Z,34.95
2017-05-11T08:38:13.019Z,34.51
2017-05-11T08:39:14.290Z,34.31
2017-05-11T08:40:15.708Z,34.08
2017-05-11T08:41:16.966Z,34.07
2017-05-11T08:42:18.243Z,34.14
2017-05-11T08:43:19.498Z,34.61
2017-05-11T08:44:20.784Z,35.2
2017-05-11T08:45:22.078Z,35.72
2017-05-11T08:46:23.415Z,35.92
2017-05-11T08:47:24.714Z,36.33
2017-05-11T08:48:26.009Z,36.54
2017-05-11T08:49:27.269Z,36.2
2017-05-11T08:50:28.533Z,36.15
2017-05-11T08:51:29.850Z,36.33
2017-05-11T08:52:31.155Z,36.46
2017-05-11T08:53:32.414Z,36.08
2017-05-11T08:54:33.683Z,36.26
2017-05-11T08:55:34.980Z,36.76
2017-05-11T08:56:36.256Z,36.11
2017-05-11T08:57:37.540Z,35.81
2017-05-11T08:58:38.816Z,35.21
2017-05-11T08:59:40.274Z,35.15
2017-05-11T09:00:41.541Z,35.21
2017-05-11T09:01:42.809Z,35.07
2017-05-11T09:02:44.092Z,34.86
2017-05-11T09:03:45.486Z,34.74
2017-05-11T09:04:46.744Z,35.32
2017-05-11T09:05:48.059Z,35.72
2017-05-11T09:06:49.352Z,35.85
2017-05-11T09:07:50.605Z,34.96
2017-05-11T09:08:51.876Z,34.99
2017-05-11T09:09:53.127Z,35.15
2017-05-11T09:10:54.394Z,35.67
2017-05-11T09:11:55.663Z,35.69
2017-05-11T09:12:56.978Z,35.42
2017-05-11T09:13:58.244Z,35.32
2017-05-11T09:14:59.535Z,35.47
2017-05-11T09:16:00.787Z,35.76
2017-05-11T09:17:02.073Z,36.19
2017-05-11T09:18:03.306Z,36.31
2017-05-11T09:19:04.629Z,36.26
2017-05-11T09:20:05.873Z,35.97
2017-05-11T09:21:07.176Z,35.88
2017-05-11T09:22:08.433Z,36.15
2017-05-11T09:23:09.717Z,36.92
2017-05-11T09:24:10.998Z,37.28
2017-05-11T09:25:12.236Z,37.58
2017-05-11T09:26:13.644Z,37.8
2017-05-11T09:27:15.009Z,37.38
2017-05-11T09:28:16.321Z,37.48
2017-05-11T09:29:17.567Z,37.51
2017-05-11T09:30:18.844Z,37.43
2017-05-11T09:31:20.218Z,37.26
2017-05-11T09:32:21.494Z,37.55
2017-05-11T09:33:22.760Z,38.11
2017-05-11T09:34:24.159Z,38.44
2017-05-11T09:35:25.427Z,38.52
2017-05-11T09:36:26.798Z,38.52
2017-05-11T09:37:28.041Z,38.7
2017-05-11T09:38:29.325Z,38.83
2017-05-11T09:39:30.597Z,39.33
2017-05-11T09:40:31.861Z,39.44
2017-05-11T09:41:33.133Z,39.55
2017-05-11T09:42:34.436Z,39.46
2017-05-11T09:43:35.733Z,39.49
2017-05-11T09:44:37.016Z,39.13
2017-05-11T09:45:38.328Z,39.49
2017-05-11T09:46:39.574Z,39.84
2017-05-11T09:47:40.863Z,40.12
2017-05-11T09:48:42.215Z,40.45
2017-05-11T09:49:43.600Z,40.43
2017-05-11T09:50:44.899Z,40.57
2017-05-11T09:51:46.179Z,40.27
2017-05-11T09:52:47.477Z,39.89
2017-05-11T09:53:48.718Z,39.46
2017-05-11T09:54:50.040Z,39.39
2017-05-11T09:55:51.387Z,39.05
2017-05-11T09:56:52.638Z,39.17
2017-05-11T09:57:53.896Z,39.21
2017-05-11T09:58:55.170Z,39.43
2017-05-11T09:59:56.475Z,39.22
2017-05-11T10:00:57.817Z,39.27
2017-05-11T10:01:59.119Z,39.51
2017-05-11T10:03:00.391Z,39.52
2017-05-11T10:04:01.658Z,39.43
2017-05-11T10:05:02.953Z,39.36
2017-05-11T10:06:04.210Z,39.2
2017-05-11T10:07:05.549Z,39.2
2017-05-11T10:08:06.812Z,39.06
2017-05-11T10:09:08.144Z,39.13
2017-05-11T10:10:09.447Z,38.9
2017-05-11T10:11:10.730Z,38.29
2017-05-11T10:12:12.005Z,37.28
2017-05-11T10:13:13.353Z,36.8
2017-05-11T10:14:14.560Z,36.36
2017-05-11T10:15:15.856Z,36.3
2017-05-11T10:16:17.104Z,36.26
2017-05-11T10:17:18.417Z,36.49
2017-05-11T10:18:19.669Z,36.33
2017-05-11T10:19:20.952Z,36.6
2017-05-11T10:20:22.228Z,36.77
2017-05-11T10:21:23.485Z,36.91
2017-05-11T10:22:24.746Z,36.75
2017-05-11T10:23:26.119Z,36.19
2017-05-11T10:24:27.374Z,36.29
2017-05-11T10:25:28.789Z,36.31
2017-05-11T10:26:30.046Z,36.15
2017-05-11T10:27:31.345Z,35.88
2017-05-11T10:28:32.621Z,36.17
2017-05-11T10:29:33.952Z,36.23
2017-05-11T10:30:35.235Z,36.12
2017-05-11T10:31:36.524Z,35.73
2017-05-11T10:32:37.777Z,35.39
2017-05-11T10:33:39.033Z,35.01
2017-05-11T10:34:40.328Z,34.39
2017-05-11T10:35:41.680Z,33.42
2017-05-11T10:36:42.975Z,33.08
2017-05-11T10:37:44.222Z,32.84
2017-05-11T10:38:45.497Z,32.71
2017-05-11T10:39:46.773Z,32.37
2017-05-11T10:40:48.038Z,32.13
2017-05-11T10:41:49.297Z,31.95
2017-05-11T10:42:50.581Z,32.05
2017-05-11T10:43:51.880Z,31.92
2017-05-11T10:44:53.137Z,31.87
2017-05-11T10:45:54.434Z,31.38
2017-05-11T10:46:55.715Z,30.8
2017-05-11T10:47:56.970Z,29.86
2017-05-11T10:48:58.272Z,28.91
2017-05-11T10:49:59.548Z,28.75
2017-05-11T10:51:00.801Z,28.29
2017-05-11T10:52:02.096Z,27.95
2017-05-11T10:53:03.359Z,27.62
2017-05-11T10:54:04.692Z,27.43
2017-05-11T10:55:06.079Z,27.02
2017-05-11T10:56:07.339Z,26.8
2017-05-11T10:57:08.589Z,26.39
2017-05-11T10:58:09.910Z,26.02
2017-05-11T10:59:11.182Z,26.06
2017-05-11T11:00:12.442Z,26.02
2017-05-11T11:01:13.713Z,25.98
2017-05-11T11:02:14.990Z,25.91
2017-05-11T11:03:16.285Z,25.83
2017-05-11T11:04:17.551Z,25.64
2017-05-11T11:05:18.866Z,25.62
2017-05-11T11:06:20.144Z,25.77
2017-05-11T11:07:21.456Z,25.99
2017-05-11T11:08:22.776Z,25.71
2017-05-11T11:09:24.062Z,25.46
2017-05-11T11:10:25.326Z,25.3
2017-05-11T11:11:26.599Z,25.1
2017-05-11T11:12:27.942Z,25.02
2017-05-11T11:13:29.198Z,25.16
2017-05-11T11:14:30.457Z,25.27
2017-05-11T11:15:31.740Z,25.5
2017-05-11T11:16:33.051Z,25.59
2017-05-11T11:17:34.301Z,25.59
2017-05-11T11:18:35.567Z,25.53
2017-05-11T11:19:36.877Z,25.53
2017-05-11T11:20:38.148Z,25.47
2017-05-11T11:21:39.405Z,25.46
2017-05-11T11:22:40.787Z,25.39
2017-05-11T11:23:42.050Z,25.32
2017-05-11T11:24:43.325Z,25.2
2017-05-11T11:25:44.590Z,25.25
2017-05-11T11:26:45.857Z,25.15
2017-05-11T11:27:47.133Z,25.07
2017-05-11T11:28:48.398Z,24.85
2017-05-11T11:29:49.659Z,24.75
2017-05-11T11:30:50.953Z,24.69
2017-05-11T11:31:52.198Z,24.61
2017-05-11T11:32:53.441Z,24.42
2017-05-11T11:33:54.721Z,24.42
2017-05-11T11:34:55.972Z,24.44
2017-05-11T11:35:57.320Z,24.34
2017-05-11T11:36:58.577Z,24.34
2017-05-11T11:37:59.866Z,24.2
2017-05-11T11:39:01.123Z,24.26
2017-05-11T11:40:02.386Z,24.19
2017-05-11T11:41:03.642Z,24.22
2017-05-11T11:42:04.936Z,24.26
2017-05-11T11:43:06.277Z,24.39
2017-05-11T11:44:07.534Z,24.56
2017-05-11T11:45:08.814Z,24.53
2017-05-11T11:46:10.101Z,24.39
2017-05-11T11:47:11.522Z,24.41
2017-05-11T11:48:12.737Z,24.47
2017-05-11T11:49:14.025Z,24.38
2017-05-11T11:50:15.285Z,24.35
2017-05-11T11:51:16.597Z,24.47
2017-05-11T11:52:17.878Z,24.54
2017-05-11T11:53:19.207Z,24.69
2017-05-11T11:54:20.423Z,24.77
2017-05-11T11:55:21.857Z,24.85
2017-05-11T11:56:23.078Z,24.8
2017-05-11T11:57:24.366Z,24.85
2017-05-11T11:58:25.626Z,24.85
2017-05-11T11:59:26.960Z,24.85
2017-05-11T12:00:28.362Z,25.01
2017-05-11T12:01:29.707Z,25.3
2017-05-11T12:02:30.965Z,25.44
2017-05-11T12:03:32.232Z,25.62
2017-05-11T12:04:33.526Z,25.75
2017-05-11T12:05:34.821Z,25.97
2017-05-11T12:06:36.057Z,25.97
2017-05-11T12:07:37.365Z,26.04
2017-05-11T12:08:38.633Z,26.02
2017-05-11T12:09:39.938Z,26.06
2017-05-11T12:10:41.209Z,26.02
2017-05-11T12:11:42.472Z,25.97
2017-05-11T12:12:43.709Z,25.75
2017-05-11T12:13:44.962Z,25.57
2017-05-11T12:14:46.218Z,25.57
2017-05-11T12:15:47.593Z,25.53
2017-05-11T12:16:48.851Z,25.46
2017-05-11T12:17:50.244Z,25.49
2017-05-11T12:18:51.591Z,25.3
2017-05-11T12:19:52.862Z,25.28
2017-05-11T12:20:54.105Z,25.38
2017-05-11T12:21:55.375Z,25.64
2017-05-11T12:22:56.641Z,25.86
2017-05-11T12:23:57.898Z,26.17
2017-05-11T12:24:59.169Z,26.52
2017-05-11T12:26:00.535Z,26.69
2017-05-11T12:27:01.784Z,26.83
2017-05-11T12:28:03.092Z,26.81
2017-05-11T12:29:04.397Z,26.76
2017-05-11T12:30:05.666Z,26.76
2017-05-11T12:31:06.911Z,26.8
2017-05-11T12:32:08.197Z,26.73
2017-05-11T12:33:09.544Z,26.73
2017-05-11T12:34:10.794Z,26.74
2017-05-11T12:35:12.069Z,26.76
2017-05-11T12:36:13.343Z,26.77
2017-05-11T12:37:14.615Z,26.62
2017-05-11T12:38:15.911Z,26.8
2017-05-11T12:39:17.138Z,26.79
2017-05-11T12:40:18.440Z,26.89
2017-05-11T12:41:19.700Z,26.96
2017-05-11T12:42:20.949Z,26.99
2017-05-11T12:43:22.242Z,27.01
2017-05-11T12:44:23.500Z,27.02
2017-05-11T12:45:24.826Z,26.94
2017-05-11T12:46:26.081Z,26.91
2017-05-11T12:47:27.372Z,26.67
2017-05-11T12:48:28.615Z,26.5
2017-05-11T12:49:29.896Z,26.25
2017-05-11T12:50:31.253Z,26.24
2017-05-11T12:51:32.553Z,26.06
2017-05-11T12:52:33.775Z,26.09
2017-05-11T12:53:35.045Z,25.84
2017-05-11T12:54:36.271Z,25.79
2017-05-11T12:55:37.642Z,25.77
2017-05-11T12:56:38.909Z,25.74
2017-05-11T12:57:40.218Z,25.83
2017-05-11T12:58:41.469Z,25.89
2017-05-11T12:59:42.706Z,25.97
2017-05-11T13:00:43.980Z,26.05
2017-05-11T13:01:45.264Z,26.06
2017-05-11T13:02:46.583Z,26.29
2017-05-11T13:03:47.872Z,26.44
2017-05-11T13:04:49.192Z,26.4
2017-05-11T13:05:50.479Z,26.43
2017-05-11T13:06:51.728Z,26.31
2017-05-11T13:07:52.972Z,26.28
2017-05-11T13:08:54.254Z,26.21
2017-05-11T13:09:55.570Z,26.37
2017-05-11T13:10:56.831Z,26.44
2017-05-11T13:11:58.108Z,26.55
2017-05-11T13:12:59.380Z,26.69
2017-05-11T13:14:00.647Z,26.8
2017-05-11T13:15:02.082Z,26.8
2017-05-11T13:16:03.340Z,26.73
2017-05-11T13:17:04.624Z,26.54
2017-05-11T13:18:05.911Z,26.5
2017-05-11T13:19:07.201Z,26.64
2017-05-11T13:20:08.519Z,26.65
2017-05-11T13:21:09.831Z,26.62
2017-05-11T13:22:11.110Z,26.61